sensor_id;sensor_type;location;lat;lon;timestamp;temperature;humidity
49132;DHT22;35149;51.196;6.204;2022-12-18T00:01:33;-1.90;64.10
49132;DHT22;35149;51.196;6.204;2022-12-18T00:04:04;-1.90;64.20
49132;DHT22;35149;51.196;6.204;2022-12-18T00:06:35;-2.00;64.20
49132;DHT22;35149;51.196;6.204;2022-12-18T00:09:05;-2.00;64.10
49132;DHT22;35149;51.196;6.204;2022-12-18T00:11:31;-2.10;64.10
49132;DHT22;35149;51.196;6.204;2022-12-18T00:14:01;-2.10;64.10
49132;DHT22;35149;51.196;6.204;2022-12-18T00:16:29;-2.20;64.10
49132;DHT22;35149;51.196;6.204;2022-12-18T00:19:05;-2.20;64.20
49132;DHT22;35149;51.196;6.204;2022-12-18T00:21:42;-2.20;64.30
49132;DHT22;35149;51.196;6.204;2022-12-18T00:24:10;-2.30;64.30
49132;DHT22;35149;51.196;6.204;2022-12-18T00:26:40;-2.30;64.30
49132;DHT22;35149;51.196;6.204;2022-12-18T00:29:13;-2.30;64.40
49132;DHT22;35149;51.196;6.204;2022-12-18T00:31:44;-2.30;64.30
49132;DHT22;35149;51.196;6.204;2022-12-18T00:34:16;-2.40;64.30
49132;DHT22;35149;51.196;6.204;2022-12-18T00:36:47;-2.30;64.30
49132;DHT22;35149;51.196;6.204;2022-12-18T00:39:14;-2.40;64.30
49132;DHT22;35149;51.196;6.204;2022-12-18T00:41:43;-2.40;64.30
49132;DHT22;35149;51.196;6.204;2022-12-18T00:44:31;-2.40;64.40
49132;DHT22;35149;51.196;6.204;2022-12-18T00:46:58;-2.50;64.40
49132;DHT22;35149;51.196;6.204;2022-12-18T00:49:24;-2.50;64.50
49132;DHT22;35149;51.196;6.204;2022-12-18T00:51:57;-2.50;64.50
49132;DHT22;35149;51.196;6.204;2022-12-18T00:54:27;-2.50;64.50
49132;DHT22;35149;51.196;6.204;2022-12-18T00:56:58;-2.50;64.50
49132;DHT22;35149;51.196;6.204;2022-12-18T00:59:35;-2.50;64.60
49132;DHT22;35149;51.196;6.204;2022-12-18T01:02:04;-2.50;64.50
49132;DHT22;35149;51.196;6.204;2022-12-18T01:04:36;-2.60;64.50
49132;DHT22;35149;51.196;6.204;2022-12-18T01:07:04;-2.60;65.20
49132;DHT22;35149;51.196;6.204;2022-12-18T01:09:36;-2.60;64.40
49132;DHT22;35149;51.196;6.204;2022-12-18T01:12:05;-2.60;64.40
49132;DHT22;35149;51.196;6.204;2022-12-18T01:14:33;-2.60;64.40
49132;DHT22;35149;51.196;6.204;2022-12-18T01:17:00;-2.60;64.50
49132;DHT22;35149;51.196;6.204;2022-12-18T01:19:32;-2.60;64.50
49132;DHT22;35149;51.196;6.204;2022-12-18T01:22:00;-2.60;64.40
49132;DHT22;35149;51.196;6.204;2022-12-18T01:24:26;-2.60;64.40
49132;DHT22;35149;51.196;6.204;2022-12-18T01:26:53;-2.70;64.30
49132;DHT22;35149;51.196;6.204;2022-12-18T01:29:24;-2.70;64.30
49132;DHT22;35149;51.196;6.204;2022-12-18T01:31:54;-2.70;64.40
49132;DHT22;35149;51.196;6.204;2022-12-18T01:34:22;-2.70;64.70
49132;DHT22;35149;51.196;6.204;2022-12-18T01:36:49;-2.70;64.30
49132;DHT22;35149;51.196;6.204;2022-12-18T01:39:15;-2.70;64.30
49132;DHT22;35149;51.196;6.204;2022-12-18T01:41:45;-2.70;64.40
49132;DHT22;35149;51.196;6.204;2022-12-18T01:47:49;-2.80;64.10
49132;DHT22;35149;51.196;6.204;2022-12-18T01:53:10;-2.80;64.20
49132;DHT22;35149;51.196;6.204;2022-12-18T01:55:42;-2.80;64.20
49132;DHT22;35149;51.196;6.204;2022-12-18T01:58:17;-2.80;64.30
49132;DHT22;35149;51.196;6.204;2022-12-18T02:00:44;-2.90;64.30
49132;DHT22;35149;51.196;6.204;2022-12-18T02:03:14;-2.90;64.30
49132;DHT22;35149;51.196;6.204;2022-12-18T02:05:48;-2.90;64.30
49132;DHT22;35149;51.196;6.204;2022-12-18T02:08:37;-2.90;64.30
49132;DHT22;35149;51.196;6.204;2022-12-18T02:14:16;-2.90;64.10
49132;DHT22;35149;51.196;6.204;2022-12-18T02:17:06;-2.90;64.20
49132;DHT22;35149;51.196;6.204;2022-12-18T02:20:18;-3.00;64.00
49132;DHT22;35149;51.196;6.204;2022-12-18T02:27:55;-3.00;64.20
49132;DHT22;35149;51.196;6.204;2022-12-18T02:30:25;-3.00;64.00
49132;DHT22;35149;51.196;6.204;2022-12-18T02:32:59;-3.00;64.10
49132;DHT22;35149;51.196;6.204;2022-12-18T02:35:32;-3.10;64.00
49132;DHT22;35149;51.196;6.204;2022-12-18T02:38:01;-3.00;64.10
49132;DHT22;35149;51.196;6.204;2022-12-18T02:40:32;-3.10;64.20
49132;DHT22;35149;51.196;6.204;2022-12-18T02:43:08;-3.10;64.20
49132;DHT22;35149;51.196;6.204;2022-12-18T02:45:46;-3.10;64.20
49132;DHT22;35149;51.196;6.204;2022-12-18T02:48:13;-3.10;64.10
49132;DHT22;35149;51.196;6.204;2022-12-18T02:51:03;-3.10;64.10
49132;DHT22;35149;51.196;6.204;2022-12-18T02:53:43;-3.10;64.20
49132;DHT22;35149;51.196;6.204;2022-12-18T02:56:21;-3.10;64.20
49132;DHT22;35149;51.196;6.204;2022-12-18T02:59:13;-3.10;64.10
49132;DHT22;35149;51.196;6.204;2022-12-18T03:04:42;-3.20;64.00
49132;DHT22;35149;51.196;6.204;2022-12-18T03:07:16;-3.20;64.20
49132;DHT22;35149;51.196;6.204;2022-12-18T03:09:49;-3.20;64.40
49132;DHT22;35149;51.196;6.204;2022-12-18T03:12:35;-3.20;64.50
49132;DHT22;35149;51.196;6.204;2022-12-18T03:15:17;-3.20;64.50
49132;DHT22;35149;51.196;6.204;2022-12-18T03:18:00;-3.20;64.50
49132;DHT22;35149;51.196;6.204;2022-12-18T03:20:31;-3.20;64.60
49132;DHT22;35149;51.196;6.204;2022-12-18T03:23:09;-3.20;64.60
49132;DHT22;35149;51.196;6.204;2022-12-18T03:25:45;-3.10;64.70
49132;DHT22;35149;51.196;6.204;2022-12-18T03:28:16;-3.10;64.70
49132;DHT22;35149;51.196;6.204;2022-12-18T03:30:55;-3.10;64.80
49132;DHT22;35149;51.196;6.204;2022-12-18T03:33:53;-3.10;64.90
49132;DHT22;35149;51.196;6.204;2022-12-18T03:36:26;-3.10;65.00
49132;DHT22;35149;51.196;6.204;2022-12-18T03:38:54;-3.10;65.00
49132;DHT22;35149;51.196;6.204;2022-12-18T03:41:32;-3.10;65.10
49132;DHT22;35149;51.196;6.204;2022-12-18T03:44:32;-3.10;65.40
49132;DHT22;35149;51.196;6.204;2022-12-18T03:47:28;-3.00;65.50
49132;DHT22;35149;51.196;6.204;2022-12-18T03:50:16;-3.00;65.60
49132;DHT22;35149;51.196;6.204;2022-12-18T03:55:21;-3.00;65.40
49132;DHT22;35149;51.196;6.204;2022-12-18T03:57:55;-3.00;65.30
49132;DHT22;35149;51.196;6.204;2022-12-18T04:00:27;-2.90;65.30
49132;DHT22;35149;51.196;6.204;2022-12-18T04:03:04;-2.90;65.20
49132;DHT22;35149;51.196;6.204;2022-12-18T04:05:40;-2.90;65.20
49132;DHT22;35149;51.196;6.204;2022-12-18T04:08:12;-2.90;65.20
49132;DHT22;35149;51.196;6.204;2022-12-18T04:10:42;-2.80;65.20
49132;DHT22;35149;51.196;6.204;2022-12-18T04:13:24;-2.90;65.00
49132;DHT22;35149;51.196;6.204;2022-12-18T04:15:58;-2.90;65.00
49132;DHT22;35149;51.196;6.204;2022-12-18T04:18:26;-2.90;65.00
49132;DHT22;35149;51.196;6.204;2022-12-18T04:20:53;-2.90;65.10
49132;DHT22;35149;51.196;6.204;2022-12-18T04:23:22;-2.90;65.30
49132;DHT22;35149;51.196;6.204;2022-12-18T04:25:48;-2.90;65.30
49132;DHT22;35149;51.196;6.204;2022-12-18T04:28:32;-2.90;65.30
49132;DHT22;35149;51.196;6.204;2022-12-18T04:30:58;-2.90;65.50
49132;DHT22;35149;51.196;6.204;2022-12-18T04:33:26;-2.90;65.90
49132;DHT22;35149;51.196;6.204;2022-12-18T04:35:53;-2.90;65.80
49132;DHT22;35149;51.196;6.204;2022-12-18T04:38:20;-2.90;65.70
49132;DHT22;35149;51.196;6.204;2022-12-18T04:40:52;-2.80;65.60
49132;DHT22;35149;51.196;6.204;2022-12-18T04:43:27;-2.80;65.60
49132;DHT22;35149;51.196;6.204;2022-12-18T04:45:53;-2.80;65.50
49132;DHT22;35149;51.196;6.204;2022-12-18T04:48:27;-2.80;65.60
49132;DHT22;35149;51.196;6.204;2022-12-18T04:50:56;-2.80;65.60
49132;DHT22;35149;51.196;6.204;2022-12-18T04:53:22;-2.80;65.70
49132;DHT22;35149;51.196;6.204;2022-12-18T04:56:03;-2.80;65.70
49132;DHT22;35149;51.196;6.204;2022-12-18T04:58:30;-2.80;65.80
49132;DHT22;35149;51.196;6.204;2022-12-18T05:01:09;-2.80;65.80
49132;DHT22;35149;51.196;6.204;2022-12-18T05:03:36;-2.70;65.80
49132;DHT22;35149;51.196;6.204;2022-12-18T05:06:07;-2.70;65.90
49132;DHT22;35149;51.196;6.204;2022-12-18T05:08:37;-2.70;66.00
49132;DHT22;35149;51.196;6.204;2022-12-18T05:11:04;-2.70;66.00
49132;DHT22;35149;51.196;6.204;2022-12-18T05:13:32;-2.70;66.00
49132;DHT22;35149;51.196;6.204;2022-12-18T05:15:59;-2.70;66.10
49132;DHT22;35149;51.196;6.204;2022-12-18T05:18:30;-2.70;66.10
49132;DHT22;35149;51.196;6.204;2022-12-18T05:20:57;-2.60;66.10
49132;DHT22;35149;51.196;6.204;2022-12-18T05:23:29;-2.60;66.00
49132;DHT22;35149;51.196;6.204;2022-12-18T05:26:01;-2.60;65.90
49132;DHT22;35149;51.196;6.204;2022-12-18T05:28:30;-2.60;65.80
49132;DHT22;35149;51.196;6.204;2022-12-18T05:30:59;-2.60;65.60
49132;DHT22;35149;51.196;6.204;2022-12-18T05:33:30;-2.60;65.70
49132;DHT22;35149;51.196;6.204;2022-12-18T05:35:59;-2.50;65.60
49132;DHT22;35149;51.196;6.204;2022-12-18T05:38:27;-2.60;65.50
49132;DHT22;35149;51.196;6.204;2022-12-18T05:40:59;-2.60;65.50
49132;DHT22;35149;51.196;6.204;2022-12-18T05:43:27;-2.60;65.40
49132;DHT22;35149;51.196;6.204;2022-12-18T05:45:54;-2.60;65.40
49132;DHT22;35149;51.196;6.204;2022-12-18T05:48:25;-2.60;65.30
49132;DHT22;35149;51.196;6.204;2022-12-18T05:50:51;-2.70;65.30
49132;DHT22;35149;51.196;6.204;2022-12-18T05:53:21;-2.70;65.30
49132;DHT22;35149;51.196;6.204;2022-12-18T05:55:48;-2.70;65.50
49132;DHT22;35149;51.196;6.204;2022-12-18T05:58:15;-2.70;65.50
49132;DHT22;35149;51.196;6.204;2022-12-18T06:00:45;-2.70;65.50
49132;DHT22;35149;51.196;6.204;2022-12-18T06:03:12;-2.60;65.50
49132;DHT22;35149;51.196;6.204;2022-12-18T06:05:43;-2.70;65.50
49132;DHT22;35149;51.196;6.204;2022-12-18T06:08:13;-2.70;65.50
49132;DHT22;35149;51.196;6.204;2022-12-18T06:10:42;-2.70;65.70
49132;DHT22;35149;51.196;6.204;2022-12-18T06:13:18;-2.70;65.80
49132;DHT22;35149;51.196;6.204;2022-12-18T06:15:45;-2.70;66.10
49132;DHT22;35149;51.196;6.204;2022-12-18T06:18:12;-2.70;66.20
49132;DHT22;35149;51.196;6.204;2022-12-18T06:20:39;-2.60;66.90
49132;DHT22;35149;51.196;6.204;2022-12-18T06:23:08;-2.60;66.20
49132;DHT22;35149;51.196;6.204;2022-12-18T06:25:38;-2.60;66.30
49132;DHT22;35149;51.196;6.204;2022-12-18T06:28:07;-2.60;66.50
49132;DHT22;35149;51.196;6.204;2022-12-18T06:30:34;-2.60;66.70
49132;DHT22;35149;51.196;6.204;2022-12-18T06:33:00;-2.50;66.80
49132;DHT22;35149;51.196;6.204;2022-12-18T06:35:29;-2.50;66.90
49132;DHT22;35149;51.196;6.204;2022-12-18T06:38:01;-2.50;66.90
49132;DHT22;35149;51.196;6.204;2022-12-18T06:40:28;-2.50;66.90
49132;DHT22;35149;51.196;6.204;2022-12-18T06:42:54;-2.40;66.80
49132;DHT22;35149;51.196;6.204;2022-12-18T06:45:25;-2.40;66.80
49132;DHT22;35149;51.196;6.204;2022-12-18T06:47:52;-2.40;66.80
49132;DHT22;35149;51.196;6.204;2022-12-18T06:50:22;-2.40;66.80
49132;DHT22;35149;51.196;6.204;2022-12-18T06:52:48;-2.40;66.80
49132;DHT22;35149;51.196;6.204;2022-12-18T06:55:20;-2.40;67.50
49132;DHT22;35149;51.196;6.204;2022-12-18T06:57:46;-2.30;66.80
49132;DHT22;35149;51.196;6.204;2022-12-18T07:00:18;-2.30;66.80
49132;DHT22;35149;51.196;6.204;2022-12-18T07:02:47;-2.30;66.80
49132;DHT22;35149;51.196;6.204;2022-12-18T07:05:14;-2.30;66.80
49132;DHT22;35149;51.196;6.204;2022-12-18T07:07:40;-2.30;66.80
49132;DHT22;35149;51.196;6.204;2022-12-18T07:10:09;-2.30;66.80
49132;DHT22;35149;51.196;6.204;2022-12-18T07:12:38;-2.30;66.80
49132;DHT22;35149;51.196;6.204;2022-12-18T07:15:05;-2.30;66.80
49132;DHT22;35149;51.196;6.204;2022-12-18T07:17:36;-2.30;66.70
49132;DHT22;35149;51.196;6.204;2022-12-18T07:20:06;-2.30;66.80
49132;DHT22;35149;51.196;6.204;2022-12-18T07:22:33;-2.30;66.80
49132;DHT22;35149;51.196;6.204;2022-12-18T07:24:59;-2.30;66.80
49132;DHT22;35149;51.196;6.204;2022-12-18T07:27:26;-2.30;66.80
49132;DHT22;35149;51.196;6.204;2022-12-18T07:29:53;-2.20;66.90
49132;DHT22;35149;51.196;6.204;2022-12-18T07:32:22;-2.20;66.80
49132;DHT22;35149;51.196;6.204;2022-12-18T07:34:48;-2.20;66.80
49132;DHT22;35149;51.196;6.204;2022-12-18T07:37:17;-2.20;66.90
49132;DHT22;35149;51.196;6.204;2022-12-18T07:39:48;-2.20;66.80
49132;DHT22;35149;51.196;6.204;2022-12-18T07:42:21;-2.20;66.80
49132;DHT22;35149;51.196;6.204;2022-12-18T07:45:00;-2.20;66.70
49132;DHT22;35149;51.196;6.204;2022-12-18T07:47:28;-2.20;66.70
49132;DHT22;35149;51.196;6.204;2022-12-18T07:49:59;-2.20;66.80
49132;DHT22;35149;51.196;6.204;2022-12-18T07:52:29;-2.20;66.90
49132;DHT22;35149;51.196;6.204;2022-12-18T07:54:56;-2.20;67.00
49132;DHT22;35149;51.196;6.204;2022-12-18T07:57:25;-2.20;67.00
49132;DHT22;35149;51.196;6.204;2022-12-18T08:00:12;-2.20;67.10
49132;DHT22;35149;51.196;6.204;2022-12-18T08:02:39;-2.20;67.00
49132;DHT22;35149;51.196;6.204;2022-12-18T08:05:06;-2.10;67.20
49132;DHT22;35149;51.196;6.204;2022-12-18T08:07:32;-2.10;67.20
49132;DHT22;35149;51.196;6.204;2022-12-18T08:09:59;-2.10;67.20
49132;DHT22;35149;51.196;6.204;2022-12-18T08:12:26;-2.00;67.30
49132;DHT22;35149;51.196;6.204;2022-12-18T08:14:52;-2.00;67.30
49132;DHT22;35149;51.196;6.204;2022-12-18T08:17:19;-2.00;67.30
49132;DHT22;35149;51.196;6.204;2022-12-18T08:19:46;-2.00;67.40
49132;DHT22;35149;51.196;6.204;2022-12-18T08:22:13;-1.90;67.50
49132;DHT22;35149;51.196;6.204;2022-12-18T08:24:39;-1.90;67.60
49132;DHT22;35149;51.196;6.204;2022-12-18T08:27:06;-1.80;67.60
49132;DHT22;35149;51.196;6.204;2022-12-18T08:29:53;-1.80;67.70
49132;DHT22;35149;51.196;6.204;2022-12-18T08:32:19;-1.70;67.70
49132;DHT22;35149;51.196;6.204;2022-12-18T08:34:46;-1.70;67.70
49132;DHT22;35149;51.196;6.204;2022-12-18T08:37:13;-1.70;67.70
49132;DHT22;35149;51.196;6.204;2022-12-18T08:39:39;-1.60;67.80
49132;DHT22;35149;51.196;6.204;2022-12-18T08:42:06;-1.60;67.80
49132;DHT22;35149;51.196;6.204;2022-12-18T08:44:51;-1.50;67.80
49132;DHT22;35149;51.196;6.204;2022-12-18T08:47:19;-1.40;67.80
49132;DHT22;35149;51.196;6.204;2022-12-18T08:49:46;-1.40;67.70
49132;DHT22;35149;51.196;6.204;2022-12-18T08:52:13;-1.40;67.60
49132;DHT22;35149;51.196;6.204;2022-12-18T08:54:39;-1.30;67.70
49132;DHT22;35149;51.196;6.204;2022-12-18T08:57:06;-1.30;67.60
49132;DHT22;35149;51.196;6.204;2022-12-18T08:59:33;-1.20;67.60
49132;DHT22;35149;51.196;6.204;2022-12-18T09:01:59;-1.20;67.60
49132;DHT22;35149;51.196;6.204;2022-12-18T09:04:26;-1.00;67.70
49132;DHT22;35149;51.196;6.204;2022-12-18T09:06:55;-1.10;67.60
49132;DHT22;35149;51.196;6.204;2022-12-18T09:09:21;-1.10;67.60
49132;DHT22;35149;51.196;6.204;2022-12-18T09:11:48;-1.00;67.60
49132;DHT22;35149;51.196;6.204;2022-12-18T09:14:15;-1.00;67.70
49132;DHT22;35149;51.196;6.204;2022-12-18T09:16:41;-0.90;67.70
49132;DHT22;35149;51.196;6.204;2022-12-18T09:19:09;-0.90;67.70
49132;DHT22;35149;51.196;6.204;2022-12-18T09:21:37;-0.80;67.80
49132;DHT22;35149;51.196;6.204;2022-12-18T09:24:13;-0.70;67.90
49132;DHT22;35149;51.196;6.204;2022-12-18T09:26:39;-0.70;67.80
49132;DHT22;35149;51.196;6.204;2022-12-18T09:29:08;-0.60;67.80
49132;DHT22;35149;51.196;6.204;2022-12-18T09:31:36;-0.60;67.80
49132;DHT22;35149;51.196;6.204;2022-12-18T09:34:03;-0.50;67.80
49132;DHT22;35149;51.196;6.204;2022-12-18T09:36:29;-0.40;67.90
49132;DHT22;35149;51.196;6.204;2022-12-18T09:38:56;-0.40;67.90
49132;DHT22;35149;51.196;6.204;2022-12-18T09:41:43;-0.30;68.00
49132;DHT22;35149;51.196;6.204;2022-12-18T09:47:11;-0.20;67.90
49132;DHT22;35149;51.196;6.204;2022-12-18T09:49:42;-0.10;67.90
49132;DHT22;35149;51.196;6.204;2022-12-18T09:52:17;0.00;67.80
49132;DHT22;35149;51.196;6.204;2022-12-18T09:55:05;0.00;67.70
49132;DHT22;35149;51.196;6.204;2022-12-18T09:57:33;0.10;67.70
49132;DHT22;35149;51.196;6.204;2022-12-18T10:00:15;0.20;67.70
49132;DHT22;35149;51.196;6.204;2022-12-18T10:02:42;0.20;67.80
49132;DHT22;35149;51.196;6.204;2022-12-18T10:05:15;0.30;67.70
49132;DHT22;35149;51.196;6.204;2022-12-18T10:07:58;0.40;67.60
49132;DHT22;35149;51.196;6.204;2022-12-18T10:17:07;0.60;67.50
49132;DHT22;35149;51.196;6.204;2022-12-18T10:19:37;0.70;67.70
49132;DHT22;35149;51.196;6.204;2022-12-18T10:22:32;0.70;67.10
49132;DHT22;35149;51.196;6.204;2022-12-18T10:27:32;0.80;66.90
49132;DHT22;35149;51.196;6.204;2022-12-18T10:30:00;0.90;67.00
49132;DHT22;35149;51.196;6.204;2022-12-18T10:32:29;0.90;67.00
49132;DHT22;35149;51.196;6.204;2022-12-18T10:34:57;1.00;67.10
49132;DHT22;35149;51.196;6.204;2022-12-18T10:37:29;1.10;67.10
49132;DHT22;35149;51.196;6.204;2022-12-18T10:40:10;1.10;67.00
49132;DHT22;35149;51.196;6.204;2022-12-18T10:42:43;1.20;67.00
49132;DHT22;35149;51.196;6.204;2022-12-18T10:45:12;1.20;66.90
49132;DHT22;35149;51.196;6.204;2022-12-18T10:47:47;1.30;66.90
49132;DHT22;35149;51.196;6.204;2022-12-18T10:50:28;1.40;66.90
49132;DHT22;35149;51.196;6.204;2022-12-18T10:53:24;1.40;66.90
49132;DHT22;35149;51.196;6.204;2022-12-18T10:55:53;1.50;66.80
49132;DHT22;35149;51.196;6.204;2022-12-18T10:58:30;1.50;66.70
49132;DHT22;35149;51.196;6.204;2022-12-18T11:01:12;1.60;66.70
49132;DHT22;35149;51.196;6.204;2022-12-18T11:06:11;1.70;66.70
49132;DHT22;35149;51.196;6.204;2022-12-18T11:08:38;1.80;66.60
49132;DHT22;35149;51.196;6.204;2022-12-18T11:11:22;1.80;66.50
49132;DHT22;35149;51.196;6.204;2022-12-18T11:13:58;1.80;66.30
49132;DHT22;35149;51.196;6.204;2022-12-18T11:16:26;1.90;66.40
49132;DHT22;35149;51.196;6.204;2022-12-18T11:19:19;1.90;66.30
49132;DHT22;35149;51.196;6.204;2022-12-18T11:21:48;2.00;66.20
49132;DHT22;35149;51.196;6.204;2022-12-18T11:26:58;2.10;66.00
49132;DHT22;35149;51.196;6.204;2022-12-18T11:29:39;2.20;66.10
49132;DHT22;35149;51.196;6.204;2022-12-18T11:34:45;2.20;66.00
49132;DHT22;35149;51.196;6.204;2022-12-18T11:37:15;2.30;66.00
49132;DHT22;35149;51.196;6.204;2022-12-18T11:39:51;2.30;66.00
49132;DHT22;35149;51.196;6.204;2022-12-18T11:47:58;2.50;65.90
49132;DHT22;35149;51.196;6.204;2022-12-18T11:50:45;2.50;65.70
49132;DHT22;35149;51.196;6.204;2022-12-18T11:53:13;2.60;65.70
49132;DHT22;35149;51.196;6.204;2022-12-18T12:01:54;2.70;65.20
49132;DHT22;35149;51.196;6.204;2022-12-18T12:04:45;2.70;64.90
49132;DHT22;35149;51.196;6.204;2022-12-18T12:10:14;2.80;64.70
49132;DHT22;35149;51.196;6.204;2022-12-18T12:20:49;2.90;64.70
49132;DHT22;35149;51.196;6.204;2022-12-18T12:25:57;3.00;64.60
49132;DHT22;35149;51.196;6.204;2022-12-18T12:31:33;3.00;64.40
49132;DHT22;35149;51.196;6.204;2022-12-18T12:37:12;3.10;64.20
49132;DHT22;35149;51.196;6.204;2022-12-18T12:39:44;3.10;63.80
49132;DHT22;35149;51.196;6.204;2022-12-18T12:42:20;3.10;64.20
49132;DHT22;35149;51.196;6.204;2022-12-18T12:45:22;3.20;64.10
49132;DHT22;35149;51.196;6.204;2022-12-18T12:47:50;3.20;63.90
49132;DHT22;35149;51.196;6.204;2022-12-18T12:50:20;3.20;64.00
49132;DHT22;35149;51.196;6.204;2022-12-18T12:52:54;3.30;63.90
49132;DHT22;35149;51.196;6.204;2022-12-18T12:55:25;3.30;63.80
49132;DHT22;35149;51.196;6.204;2022-12-18T12:58:05;3.30;63.70
49132;DHT22;35149;51.196;6.204;2022-12-18T13:00:46;3.30;63.70
49132;DHT22;35149;51.196;6.204;2022-12-18T13:03:46;3.40;63.50
49132;DHT22;35149;51.196;6.204;2022-12-18T13:06:49;3.40;63.00
49132;DHT22;35149;51.196;6.204;2022-12-18T13:09:17;3.40;62.80
49132;DHT22;35149;51.196;6.204;2022-12-18T13:11:46;3.50;63.40
49132;DHT22;35149;51.196;6.204;2022-12-18T13:14:37;3.40;63.20
49132;DHT22;35149;51.196;6.204;2022-12-18T13:20:03;3.50;62.90
49132;DHT22;35149;51.196;6.204;2022-12-18T13:22:59;3.50;62.70
49132;DHT22;35149;51.196;6.204;2022-12-18T13:28:15;3.50;62.80
49132;DHT22;35149;51.196;6.204;2022-12-18T13:30:48;3.50;62.40
49132;DHT22;35149;51.196;6.204;2022-12-18T13:35:52;3.60;62.90
49132;DHT22;35149;51.196;6.204;2022-12-18T13:41:04;3.60;62.60
49132;DHT22;35149;51.196;6.204;2022-12-18T13:51:44;3.60;62.40
49132;DHT22;35149;51.196;6.204;2022-12-18T13:56:48;3.60;62.40
49132;DHT22;35149;51.196;6.204;2022-12-18T13:59:26;3.60;62.30
49132;DHT22;35149;51.196;6.204;2022-12-18T14:01:58;3.50;62.00
49132;DHT22;35149;51.196;6.204;2022-12-18T14:04:30;3.50;62.30
49132;DHT22;35149;51.196;6.204;2022-12-18T14:07:05;3.50;62.30
49132;DHT22;35149;51.196;6.204;2022-12-18T14:09:42;3.50;62.00
49132;DHT22;35149;51.196;6.204;2022-12-18T14:12:23;3.50;62.20
49132;DHT22;35149;51.196;6.204;2022-12-18T14:15:43;3.50;62.20
49132;DHT22;35149;51.196;6.204;2022-12-18T14:20:44;3.40;62.00
49132;DHT22;35149;51.196;6.204;2022-12-18T14:23:38;3.40;62.10
49132;DHT22;35149;51.196;6.204;2022-12-18T14:26:26;3.40;61.90
49132;DHT22;35149;51.196;6.204;2022-12-18T14:29:28;3.40;61.90
49132;DHT22;35149;51.196;6.204;2022-12-18T14:32:16;3.30;61.90
49132;DHT22;35149;51.196;6.204;2022-12-18T14:34:49;3.30;62.10
49132;DHT22;35149;51.196;6.204;2022-12-18T14:37:20;3.30;62.40
49132;DHT22;35149;51.196;6.204;2022-12-18T14:39:58;3.30;63.00
49132;DHT22;35149;51.196;6.204;2022-12-18T14:42:27;3.30;62.30
49132;DHT22;35149;51.196;6.204;2022-12-18T14:45:33;3.30;62.40
49132;DHT22;35149;51.196;6.204;2022-12-18T14:48:17;3.20;62.20
49132;DHT22;35149;51.196;6.204;2022-12-18T14:51:00;3.20;62.40
49132;DHT22;35149;51.196;6.204;2022-12-18T14:53:35;3.20;62.40
49132;DHT22;35149;51.196;6.204;2022-12-18T14:56:04;3.20;62.30
49132;DHT22;35149;51.196;6.204;2022-12-18T14:58:36;3.10;62.30
49132;DHT22;35149;51.196;6.204;2022-12-18T15:01:03;3.10;62.40
49132;DHT22;35149;51.196;6.204;2022-12-18T15:03:30;3.10;62.30
49132;DHT22;35149;51.196;6.204;2022-12-18T15:06:15;3.10;62.20
49132;DHT22;35149;51.196;6.204;2022-12-18T15:08:42;3.10;61.90
49132;DHT22;35149;51.196;6.204;2022-12-18T15:13:59;3.10;62.10
49132;DHT22;35149;51.196;6.204;2022-12-18T15:16:27;3.00;62.40
49132;DHT22;35149;51.196;6.204;2022-12-18T15:18:54;3.00;62.40
49132;DHT22;35149;51.196;6.204;2022-12-18T15:21:21;3.00;62.40
49132;DHT22;35149;51.196;6.204;2022-12-18T15:23:50;3.00;62.40
49132;DHT22;35149;51.196;6.204;2022-12-18T15:26:20;3.00;62.40
49132;DHT22;35149;51.196;6.204;2022-12-18T15:28:51;2.90;62.40
49132;DHT22;35149;51.196;6.204;2022-12-18T15:31:28;2.90;62.50
49132;DHT22;35149;51.196;6.204;2022-12-18T15:36:23;2.90;62.60
49132;DHT22;35149;51.196;6.204;2022-12-18T15:38:55;2.90;62.50
49132;DHT22;35149;51.196;6.204;2022-12-18T15:41:33;2.90;62.50
49132;DHT22;35149;51.196;6.204;2022-12-18T15:44:01;2.90;62.60
49132;DHT22;35149;51.196;6.204;2022-12-18T15:46:29;2.90;62.60
49132;DHT22;35149;51.196;6.204;2022-12-18T15:48:57;2.80;62.50
49132;DHT22;35149;51.196;6.204;2022-12-18T15:51:33;2.80;62.60
49132;DHT22;35149;51.196;6.204;2022-12-18T15:54:03;2.80;62.70
49132;DHT22;35149;51.196;6.204;2022-12-18T15:56:30;2.80;62.70
49132;DHT22;35149;51.196;6.204;2022-12-18T15:59:36;2.80;62.70
49132;DHT22;35149;51.196;6.204;2022-12-18T16:02:16;2.80;62.70
49132;DHT22;35149;51.196;6.204;2022-12-18T16:04:43;2.80;62.50
49132;DHT22;35149;51.196;6.204;2022-12-18T16:07:12;2.80;62.80
49132;DHT22;35149;51.196;6.204;2022-12-18T16:09:50;2.80;62.80
49132;DHT22;35149;51.196;6.204;2022-12-18T16:12:20;2.80;62.80
49132;DHT22;35149;51.196;6.204;2022-12-18T16:14:48;2.80;62.80
49132;DHT22;35149;51.196;6.204;2022-12-18T16:17:15;2.80;62.80
49132;DHT22;35149;51.196;6.204;2022-12-18T16:19:42;2.80;62.80
49132;DHT22;35149;51.196;6.204;2022-12-18T16:22:19;2.80;62.80
49132;DHT22;35149;51.196;6.204;2022-12-18T16:24:47;2.80;62.70
49132;DHT22;35149;51.196;6.204;2022-12-18T16:27:14;2.70;62.70
49132;DHT22;35149;51.196;6.204;2022-12-18T16:29:41;2.70;62.70
49132;DHT22;35149;51.196;6.204;2022-12-18T16:32:19;2.70;62.70
49132;DHT22;35149;51.196;6.204;2022-12-18T16:34:47;2.70;62.70
49132;DHT22;35149;51.196;6.204;2022-12-18T16:37:15;2.80;63.40
49132;DHT22;35149;51.196;6.204;2022-12-18T16:39:43;2.70;62.70
49132;DHT22;35149;51.196;6.204;2022-12-18T16:44:41;2.80;62.80
49132;DHT22;35149;51.196;6.204;2022-12-18T16:47:07;2.80;62.80
49132;DHT22;35149;51.196;6.204;2022-12-18T16:49:35;2.70;62.80
49132;DHT22;35149;51.196;6.204;2022-12-18T16:52:06;2.70;62.70
49132;DHT22;35149;51.196;6.204;2022-12-18T16:54:33;2.70;62.80
49132;DHT22;35149;51.196;6.204;2022-12-18T16:57:02;2.70;62.90
49132;DHT22;35149;51.196;6.204;2022-12-18T16:59:30;2.70;62.90
49132;DHT22;35149;51.196;6.204;2022-12-18T17:01:57;2.70;63.00
49132;DHT22;35149;51.196;6.204;2022-12-18T17:04:24;2.70;63.00
49132;DHT22;35149;51.196;6.204;2022-12-18T17:06:51;2.70;63.00
49132;DHT22;35149;51.196;6.204;2022-12-18T17:09:20;2.80;63.00
49132;DHT22;35149;51.196;6.204;2022-12-18T17:11:56;2.80;63.00
49132;DHT22;35149;51.196;6.204;2022-12-18T17:14:23;2.70;63.00
49132;DHT22;35149;51.196;6.204;2022-12-18T17:16:51;2.80;63.10
49132;DHT22;35149;51.196;6.204;2022-12-18T17:19:38;2.80;63.10
49132;DHT22;35149;51.196;6.204;2022-12-18T17:22:05;2.80;63.10
49132;DHT22;35149;51.196;6.204;2022-12-18T17:24:33;2.80;63.10
49132;DHT22;35149;51.196;6.204;2022-12-18T17:27:02;2.80;63.10
49132;DHT22;35149;51.196;6.204;2022-12-18T17:29:29;2.80;63.20
49132;DHT22;35149;51.196;6.204;2022-12-18T17:31:56;2.80;63.20
49132;DHT22;35149;51.196;6.204;2022-12-18T17:34:26;2.80;63.20
49132;DHT22;35149;51.196;6.204;2022-12-18T17:36:52;2.80;63.20
49132;DHT22;35149;51.196;6.204;2022-12-18T17:39:20;2.80;63.20
49132;DHT22;35149;51.196;6.204;2022-12-18T17:41:47;2.80;63.20
49132;DHT22;35149;51.196;6.204;2022-12-18T17:44:15;2.80;63.30
49132;DHT22;35149;51.196;6.204;2022-12-18T17:46:43;2.80;63.30
49132;DHT22;35149;51.196;6.204;2022-12-18T17:49:10;2.80;63.30
49132;DHT22;35149;51.196;6.204;2022-12-18T17:51:37;2.80;63.30
49132;DHT22;35149;51.196;6.204;2022-12-18T17:54:05;2.80;63.30